createdAt,value
2018-07-14T00:01:51.076Z,19.97
2018-07-14T00:04:23.322Z,19.93
2018-07-14T00:06:52.952Z,19.88
2018-07-14T00:09:22.719Z,19.82
2018-07-14T00:11:51.990Z,19.76
2018-07-14T00:14:21.052Z,19.72
2018-07-14T00:16:50.195Z,19.67
2018-07-14T00:19:20.419Z,19.62
2018-07-14T00:21:49.273Z,19.58
2018-07-14T00:24:18.201Z,19.55
2018-07-14T00:26:47.021Z,19.52
2018-07-14T00:29:15.831Z,19.48
2018-07-14T00:31:44.719Z,19.41
2018-07-14T00:34:14.079Z,19.36
2018-07-14T00:36:42.815Z,19.34
2018-07-14T00:39:11.551Z,19.30
2018-07-14T00:41:40.374Z,19.27
2018-07-14T00:44:09.200Z,19.26
2018-07-14T00:46:38.223Z,19.22
2018-07-14T00:49:07.055Z,19.19
2018-07-14T00:51:35.834Z,19.14
2018-07-14T00:54:04.740Z,19.12
2018-07-14T00:56:34.182Z,19.09
2018-07-14T00:59:02.916Z,19.06
2018-07-14T01:01:32.858Z,19.05
2018-07-14T01:04:02.352Z,19.02
2018-07-14T01:06:31.998Z,19.00
2018-07-14T01:09:01.283Z,18.97
2018-07-14T01:11:30.073Z,18.94
2018-07-14T01:13:58.832Z,18.92
2018-07-14T01:16:27.662Z,18.82
2018-07-14T01:18:56.859Z,18.76
2018-07-14T01:21:25.798Z,18.70
2018-07-14T01:23:54.548Z,18.65
2018-07-14T01:26:23.636Z,18.60
2018-07-14T01:28:52.754Z,18.58
2018-07-14T01:31:21.930Z,18.58
2018-07-14T01:33:51.945Z,18.56
2018-07-14T01:36:20.956Z,18.56
2018-07-14T01:38:49.779Z,18.57
2018-07-14T01:41:18.624Z,18.58
2018-07-14T01:43:47.534Z,18.57
2018-07-14T01:46:16.440Z,18.57
2018-07-14T01:48:45.212Z,18.58
2018-07-14T01:51:13.973Z,18.59
2018-07-14T01:53:42.714Z,18.59
2018-07-14T01:56:12.414Z,18.59
2018-07-14T01:58:41.147Z,18.61
2018-07-14T02:01:10.951Z,18.59
2018-07-14T02:03:40.363Z,18.60
2018-07-14T02:06:09.822Z,18.62
2018-07-14T02:08:38.594Z,18.62
2018-07-14T02:11:07.867Z,18.60
2018-07-14T02:13:36.633Z,18.60
2018-07-14T02:16:05.434Z,18.60
2018-07-14T02:18:34.786Z,18.60
2018-07-14T02:21:03.589Z,18.62
2018-07-14T02:23:32.414Z,18.62
2018-07-14T02:26:01.245Z,18.63
2018-07-14T02:28:30.055Z,18.64
2018-07-14T02:30:59.082Z,18.63
2018-07-14T02:33:28.512Z,18.63
2018-07-14T02:35:57.323Z,18.64
2018-07-14T02:38:26.211Z,18.63
2018-07-14T02:40:55.223Z,18.59
2018-07-14T02:43:24.600Z,18.58
2018-07-14T02:45:54.261Z,18.58
2018-07-14T02:48:23.509Z,18.58
2018-07-14T02:50:52.945Z,18.57
2018-07-14T02:53:22.085Z,18.60
2018-07-14T02:55:52.089Z,18.60
2018-07-14T02:58:21.135Z,18.64
2018-07-14T03:00:50.528Z,18.90
2018-07-14T03:03:20.241Z,19.40
2018-07-14T03:05:51.148Z,19.94
2018-07-14T03:08:20.946Z,20.44
2018-07-14T03:10:49.829Z,20.94
2018-07-14T03:13:18.555Z,21.41
2018-07-14T03:15:47.370Z,21.75
2018-07-14T03:18:16.114Z,22.10
2018-07-14T03:20:45.576Z,22.53
2018-07-14T03:24:16.813Z,22.92
2018-07-14T03:26:45.613Z,23.42
2018-07-14T03:29:14.356Z,23.63
2018-07-14T03:31:43.282Z,23.75
2018-07-14T03:34:12.513Z,23.85
2018-07-14T03:36:41.314Z,23.95
2018-07-14T03:39:10.710Z,24.05
2018-07-14T03:41:40.326Z,24.22
2018-07-14T03:44:10.716Z,24.28
2018-07-14T03:46:39.462Z,24.44
2018-07-14T03:49:08.240Z,24.57
2018-07-14T03:51:37.034Z,24.66
2018-07-14T03:54:06.447Z,24.73
2018-07-14T03:56:36.251Z,24.92
2018-07-14T03:59:05.323Z,25.10
2018-07-14T04:02:37.179Z,25.33
2018-07-14T04:05:07.008Z,25.57
2018-07-14T04:07:36.338Z,25.86
2018-07-14T04:10:07.192Z,26.01
2018-07-14T04:12:35.999Z,25.85
2018-07-14T04:15:04.813Z,25.66
2018-07-14T04:17:33.562Z,25.35
2018-07-14T04:20:03.528Z,24.98
2018-07-14T04:22:32.467Z,24.47
2018-07-14T04:25:01.308Z,24.02
2018-07-14T04:27:30.130Z,23.52
2018-07-14T04:29:58.902Z,23.12
2018-07-14T04:32:27.809Z,22.91
2018-07-14T04:34:57.295Z,22.80
2018-07-14T04:37:26.090Z,22.78
2018-07-14T04:39:55.254Z,22.83
2018-07-14T04:42:25.320Z,22.84
2018-07-14T04:44:55.420Z,22.91
2018-07-14T04:47:24.616Z,22.98
2018-07-14T04:49:54.407Z,23.05
2018-07-14T04:52:23.503Z,23.12
2018-07-14T04:54:53.734Z,23.12
2018-07-14T04:57:23.439Z,23.12
2018-07-14T04:59:53.187Z,23.13
2018-07-14T05:02:22.905Z,23.13
2018-07-14T05:04:51.931Z,22.94
2018-07-14T05:07:21.651Z,22.92
2018-07-14T05:09:51.220Z,22.82
2018-07-14T05:12:20.314Z,22.74
2018-07-14T05:14:49.046Z,22.62
2018-07-14T05:17:17.973Z,22.59
2018-07-14T05:19:47.166Z,22.62
2018-07-14T05:22:15.992Z,22.63
2018-07-14T05:24:44.788Z,22.65
2018-07-14T05:27:13.692Z,22.66
2018-07-14T05:29:42.492Z,22.63
2018-07-14T05:32:11.370Z,22.60
2018-07-14T05:34:41.741Z,22.57
2018-07-14T05:37:10.511Z,22.59
2018-07-14T05:39:39.287Z,22.68
2018-07-14T05:42:08.970Z,22.81
2018-07-14T05:44:38.431Z,22.90
2018-07-14T05:47:07.183Z,23.00
2018-07-14T05:49:35.972Z,23.03
2018-07-14T05:52:04.912Z,23.14
2018-07-14T05:54:34.130Z,23.22
2018-07-14T05:57:03.994Z,23.28
2018-07-14T05:59:32.783Z,23.37
2018-07-14T06:02:02.943Z,23.34
2018-07-14T06:04:31.738Z,23.35
2018-07-14T06:07:01.083Z,23.37
2018-07-14T06:09:30.446Z,23.42
2018-07-14T06:11:59.231Z,23.54
2018-07-14T06:14:28.612Z,23.69
2018-07-14T06:16:57.454Z,23.77
2018-07-14T06:19:27.813Z,23.85
2018-07-14T06:21:56.917Z,23.94
2018-07-14T06:24:26.064Z,24.02
2018-07-14T06:26:55.275Z,24.07
2018-07-14T06:29:24.464Z,24.07
2018-07-14T06:31:54.511Z,24.03
2018-07-14T06:34:23.918Z,24.05
2018-07-14T06:36:52.850Z,24.09
2018-07-14T06:39:22.428Z,24.11
2018-07-14T06:41:51.734Z,24.11
2018-07-14T06:44:21.362Z,24.12
2018-07-14T06:46:50.181Z,24.22
2018-07-14T06:49:19.098Z,24.25
2018-07-14T06:51:47.912Z,24.27
2018-07-14T06:54:17.664Z,24.33
2018-07-14T06:56:46.978Z,24.49
2018-07-14T06:59:15.760Z,24.63
2018-07-14T07:01:45.725Z,24.75
2018-07-14T07:04:14.976Z,24.88
2018-07-14T07:06:44.480Z,24.96
2018-07-14T07:09:13.986Z,25.13
2018-07-14T07:11:42.957Z,25.31
2018-07-14T07:14:11.736Z,25.28
2018-07-14T07:16:40.563Z,25.21
2018-07-14T07:19:10.013Z,25.10
2018-07-14T07:21:38.866Z,24.99
2018-07-14T07:24:07.713Z,24.87
2018-07-14T07:26:36.538Z,24.81
2018-07-14T07:29:05.347Z,24.85
2018-07-14T07:31:34.238Z,24.95
2018-07-14T07:34:04.297Z,25.01
2018-07-14T07:36:33.034Z,25.03
2018-07-14T07:39:02.007Z,25.05
2018-07-14T07:41:31.587Z,25.10
2018-07-14T07:44:01.388Z,25.12
2018-07-14T07:46:30.190Z,25.29
2018-07-14T07:48:58.971Z,25.34
2018-07-14T07:51:27.850Z,25.42
2018-07-14T07:55:00.386Z,25.54
2018-07-14T07:57:29.923Z,25.66
2018-07-14T07:59:58.749Z,25.73
2018-07-14T08:02:28.319Z,25.74
2018-07-14T08:04:57.855Z,25.81
2018-07-14T08:07:28.012Z,25.90
2018-07-14T08:09:57.020Z,26.02
2018-07-14T08:12:26.646Z,26.14
2018-07-14T08:14:55.763Z,26.30
2018-07-14T08:17:24.905Z,26.42
2018-07-14T08:19:54.713Z,26.42
2018-07-14T08:22:23.681Z,26.43
2018-07-14T08:24:52.513Z,26.49
2018-07-14T08:27:21.325Z,26.47
2018-07-14T08:29:50.069Z,26.48
2018-07-14T08:32:18.930Z,26.67
2018-07-14T08:34:48.502Z,26.76
2018-07-14T08:37:17.276Z,26.79
2018-07-14T08:39:46.875Z,26.81
2018-07-14T08:42:16.174Z,26.79
2018-07-14T08:44:45.725Z,26.85
2018-07-14T08:47:14.549Z,26.92
2018-07-14T08:49:43.291Z,26.96
2018-07-14T08:52:12.059Z,27.12
2018-07-14T08:54:42.061Z,27.06
2018-07-14T08:57:11.817Z,26.97
2018-07-14T08:59:40.566Z,26.93
2018-07-14T09:02:10.079Z,26.94
2018-07-14T09:04:38.885Z,27.04
2018-07-14T09:07:08.848Z,27.22
2018-07-14T09:09:38.394Z,27.36
2018-07-14T09:12:07.189Z,27.47
2018-07-14T09:14:35.938Z,27.59
2018-07-14T09:17:04.785Z,27.61
2018-07-14T09:19:33.541Z,27.69
2018-07-14T09:22:02.376Z,27.70
2018-07-14T09:24:31.178Z,27.80
2018-07-14T09:26:59.977Z,27.87
2018-07-14T09:29:28.735Z,27.81
2018-07-14T09:31:57.563Z,27.78
2018-07-14T09:34:27.581Z,27.78
2018-07-14T09:36:57.242Z,27.80
2018-07-14T09:39:26.691Z,27.95
2018-07-14T09:41:56.849Z,28.01
2018-07-14T09:44:26.933Z,28.08
2018-07-14T09:47:27.155Z,28.14
2018-07-14T09:49:56.587Z,28.22
2018-07-14T09:52:25.782Z,28.30
2018-07-14T09:54:56.127Z,28.40
2018-07-14T09:57:26.820Z,28.47
2018-07-14T09:59:56.446Z,28.58
2018-07-14T10:02:26.299Z,28.55
2018-07-14T10:04:56.366Z,28.56
2018-07-14T10:07:25.579Z,28.52
2018-07-14T10:09:55.896Z,28.58
2018-07-14T10:12:24.907Z,28.59
2018-07-14T10:14:53.713Z,28.68
2018-07-14T10:17:22.735Z,28.83
2018-07-14T10:19:52.370Z,28.91
2018-07-14T10:22:21.188Z,28.87
2018-07-14T10:24:49.934Z,28.75
2018-07-14T10:27:18.720Z,28.82
2018-07-14T10:29:47.434Z,28.88
2018-07-14T10:32:16.304Z,29.04
2018-07-14T10:34:45.864Z,29.07
2018-07-14T10:37:15.360Z,29.06
2018-07-14T10:39:44.164Z,29.08
2018-07-14T10:42:13.966Z,29.03
2018-07-14T10:44:43.734Z,29.18
2018-07-14T10:47:12.480Z,29.18
2018-07-14T10:49:41.256Z,29.19
2018-07-14T10:52:10.667Z,29.12
2018-07-14T10:54:40.120Z,29.11
2018-07-14T10:57:10.092Z,29.11
2018-07-14T10:59:38.909Z,29.20
2018-07-14T11:02:08.519Z,29.12
2018-07-14T11:04:37.305Z,29.14
2018-07-14T11:07:06.682Z,29.15
2018-07-14T11:09:36.326Z,29.26
2018-07-14T11:12:05.176Z,29.36
2018-07-14T11:14:33.945Z,29.38
2018-07-14T11:17:02.721Z,29.43
2018-07-14T11:19:31.501Z,29.37
2018-07-14T11:22:00.355Z,29.32
2018-07-14T11:24:29.366Z,29.29
2018-07-14T11:26:58.160Z,29.32
2018-07-14T11:29:27.181Z,29.39
2018-07-14T11:31:56.449Z,29.49
2018-07-14T11:34:26.253Z,29.54
2018-07-14T11:36:55.450Z,29.56
2018-07-14T11:39:24.517Z,29.65
2018-07-14T11:41:54.130Z,29.59
2018-07-14T11:44:23.591Z,29.60
2018-07-14T11:46:52.387Z,29.60
2018-07-14T11:49:21.226Z,29.63
2018-07-14T11:51:50.601Z,29.69
2018-07-14T11:54:19.411Z,29.73
2018-07-14T11:56:49.309Z,29.71
2018-07-14T11:59:18.135Z,29.70
2018-07-14T12:01:47.750Z,29.75
2018-07-14T12:04:17.322Z,29.87
2018-07-14T12:06:47.042Z,29.98
2018-07-14T12:09:16.696Z,30.01
2018-07-14T12:11:45.497Z,30.03
2018-07-14T12:14:14.227Z,30.12
2018-07-14T12:16:43.062Z,30.16
2018-07-14T12:19:11.822Z,30.21
2018-07-14T12:21:41.494Z,30.31
2018-07-14T12:24:10.269Z,30.21
2018-07-14T12:26:39.117Z,30.19
2018-07-14T12:29:08.058Z,30.26
2018-07-14T12:31:36.903Z,30.29
2018-07-14T12:34:06.494Z,30.30
2018-07-14T12:36:35.347Z,30.29
2018-07-14T12:39:04.342Z,30.24
2018-07-14T12:41:33.964Z,30.28
2018-07-14T12:44:03.323Z,30.26
2018-07-14T12:46:32.074Z,30.22
2018-07-14T12:49:00.970Z,30.06
2018-07-14T12:51:30.599Z,30.05
2018-07-14T12:53:59.686Z,30.02
2018-07-14T12:56:29.214Z,29.95
2018-07-14T12:58:58.040Z,29.92
2018-07-14T13:01:27.056Z,29.93
2018-07-14T13:03:56.663Z,29.90
2018-07-14T13:06:27.096Z,29.94
2018-07-14T13:08:56.798Z,29.93
2018-07-14T13:11:25.813Z,29.96
2018-07-14T13:13:54.925Z,29.93
2018-07-14T13:16:23.827Z,29.92
2018-07-14T13:18:52.767Z,29.90
2018-07-14T13:21:22.347Z,29.93
2018-07-14T13:23:51.122Z,29.98
2018-07-14T13:26:20.734Z,30.11
2018-07-14T13:28:49.669Z,30.21
2018-07-14T13:31:18.430Z,30.27
2018-07-14T13:33:47.719Z,30.33
2018-07-14T13:36:16.545Z,30.36
2018-07-14T13:38:51.614Z,30.43
2018-07-14T13:41:15.056Z,30.43
2018-07-14T13:43:45.309Z,30.39
2018-07-14T13:46:14.067Z,30.46
2018-07-14T13:48:43.141Z,30.53
2018-07-14T13:51:12.462Z,30.54
2018-07-14T13:53:41.327Z,30.57
2018-07-14T13:56:11.047Z,30.60
2018-07-14T13:58:40.555Z,30.66
2018-07-14T14:01:09.322Z,30.61
2018-07-14T14:03:38.760Z,30.60
2018-07-14T14:06:08.134Z,30.71
2018-07-14T14:08:38.367Z,30.86
2018-07-14T14:11:07.303Z,30.88
2018-07-14T14:13:36.310Z,30.93
2018-07-14T14:16:05.282Z,30.86
2018-07-14T14:18:34.096Z,30.84
2018-07-14T14:21:03.871Z,30.78
2018-07-14T14:23:32.818Z,30.89
2018-07-14T14:26:01.537Z,31.02
2018-07-14T14:28:30.388Z,31.08
2018-07-14T14:30:59.218Z,31.08
2018-07-14T14:33:29.149Z,31.11
2018-07-14T14:35:57.971Z,31.04
2018-07-14T14:38:27.320Z,31.05
2018-07-14T14:40:56.419Z,31.17
2018-07-14T14:43:26.351Z,31.25
2018-07-14T14:45:56.224Z,31.18
2018-07-14T14:48:25.833Z,31.23
2018-07-14T14:50:54.664Z,31.16
2018-07-14T14:53:24.580Z,31.13
2018-07-14T14:55:54.157Z,31.10
2018-07-14T14:58:22.960Z,31.20
2018-07-14T15:00:51.712Z,31.30
2018-07-14T15:03:21.038Z,31.28
2018-07-14T15:05:50.798Z,31.18
2018-07-14T15:08:20.254Z,31.25
2018-07-14T15:10:49.174Z,31.39
2018-07-14T15:13:17.945Z,31.51
2018-07-14T15:15:46.750Z,31.60
2018-07-14T15:18:15.601Z,31.70
2018-07-14T15:20:45.346Z,31.57
2018-07-14T15:23:14.102Z,31.53
2018-07-14T15:25:43.084Z,31.61
2018-07-14T15:28:11.920Z,31.60
2018-07-14T15:30:40.730Z,31.63
2018-07-14T15:33:09.985Z,31.77
2018-07-14T15:35:39.191Z,31.90
2018-07-14T15:38:08.696Z,32.18
2018-07-14T15:40:39.074Z,32.63
2018-07-14T15:43:08.446Z,32.93
2018-07-14T15:45:38.141Z,33.24
2018-07-14T15:49:09.890Z,33.58
2018-07-14T15:51:38.744Z,34.13
2018-07-14T15:54:08.352Z,34.38
2018-07-14T15:56:37.596Z,34.85
2018-07-14T15:59:06.423Z,35.21
2018-07-14T16:01:36.458Z,35.22
2018-07-14T16:04:06.302Z,35.07
2018-07-14T16:06:35.573Z,34.90
2018-07-14T16:09:05.639Z,34.91
2018-07-14T16:11:34.591Z,34.82
2018-07-14T16:14:03.394Z,34.76
2018-07-14T16:16:32.194Z,34.82
2018-07-14T16:19:01.957Z,34.73
2018-07-14T16:21:31.286Z,34.56
2018-07-14T16:24:00.028Z,34.52
2018-07-14T16:26:28.814Z,34.69
2018-07-14T16:28:57.964Z,34.90
2018-07-14T16:31:27.038Z,35.29
2018-07-14T16:33:56.631Z,35.45
2018-07-14T16:36:25.573Z,35.71
2018-07-14T16:38:54.347Z,35.87
2018-07-14T16:41:23.217Z,36.04
2018-07-14T16:43:52.550Z,36.07
2018-07-14T16:46:21.979Z,35.78
2018-07-14T16:48:51.628Z,35.82
2018-07-14T16:51:20.472Z,35.81
2018-07-14T16:53:49.946Z,35.72
2018-07-14T16:56:19.371Z,35.72
2018-07-14T16:58:48.805Z,35.80
2018-07-14T17:01:17.694Z,35.79
2018-07-14T17:03:47.024Z,35.92
2018-07-14T17:06:16.430Z,36.06
2018-07-14T17:08:46.047Z,35.96
2018-07-14T17:11:14.840Z,35.83
2018-07-14T17:13:43.654Z,35.88
2018-07-14T17:16:12.553Z,35.93
2018-07-14T17:18:41.429Z,35.90
2018-07-14T17:21:10.974Z,35.40
2018-07-14T17:23:39.968Z,35.08
2018-07-14T17:26:08.713Z,35.03
2018-07-14T17:28:37.542Z,34.97
2018-07-14T17:31:06.306Z,34.94
2018-07-14T17:33:36.017Z,35.03
2018-07-14T17:36:04.831Z,34.95
2018-07-14T17:38:34.612Z,34.99
2018-07-14T17:41:03.463Z,35.09
2018-07-14T17:43:33.766Z,35.13
2018-07-14T17:46:02.555Z,35.14
2018-07-14T17:48:31.313Z,34.98
2018-07-14T17:51:00.709Z,34.82
2018-07-14T17:53:30.312Z,34.63
2018-07-14T17:55:59.598Z,34.44
2018-07-14T17:58:28.918Z,34.26
2018-07-14T18:00:58.044Z,34.06
2018-07-14T18:03:28.336Z,33.86
2018-07-14T18:05:58.446Z,33.47
2018-07-14T18:08:28.840Z,33.04
2018-07-14T18:10:57.864Z,32.71
2018-07-14T18:13:28.056Z,32.44
2018-07-14T18:15:57.125Z,32.12
2018-07-14T18:18:26.314Z,32.00
2018-07-14T18:20:55.930Z,31.83
2018-07-14T18:23:25.303Z,31.92
2018-07-14T18:25:54.066Z,31.99
2018-07-14T18:28:22.979Z,32.04
2018-07-14T18:30:51.845Z,31.85
2018-07-14T18:33:20.890Z,31.51
2018-07-14T18:35:50.355Z,31.05
2018-07-14T18:38:19.188Z,30.66
2018-07-14T18:40:47.992Z,30.40
2018-07-14T18:43:17.614Z,30.22
2018-07-14T18:45:48.133Z,30.01
2018-07-14T18:48:16.895Z,29.73
2018-07-14T18:50:46.559Z,29.50
2018-07-14T18:53:15.911Z,29.23
2018-07-14T18:55:45.488Z,29.00
2018-07-14T18:58:14.941Z,28.76
2018-07-14T19:00:43.842Z,28.57
2018-07-14T19:03:13.185Z,28.40
2018-07-14T19:05:42.631Z,28.26
2018-07-14T19:08:12.167Z,28.06
2018-07-14T19:10:40.989Z,27.92
2018-07-14T19:13:09.821Z,27.77
2018-07-14T19:15:38.627Z,27.66
2018-07-14T19:18:07.426Z,27.50
2018-07-14T19:20:37.322Z,27.39
2018-07-14T19:23:06.179Z,27.27
2018-07-14T19:25:34.913Z,27.17
2018-07-14T19:28:03.894Z,27.08
2018-07-14T19:30:32.660Z,26.95
2018-07-14T19:33:02.119Z,26.77
2018-07-14T19:35:31.522Z,26.63
2018-07-14T19:38:00.275Z,26.52
2018-07-14T19:40:29.091Z,26.41
2018-07-14T19:42:58.536Z,26.32
2018-07-14T19:45:28.489Z,26.22
2018-07-14T19:47:57.699Z,26.09
2018-07-14T19:50:27.880Z,25.94
2018-07-14T19:52:57.722Z,25.84
2018-07-14T19:55:27.201Z,25.70
2018-07-14T19:57:57.000Z,25.55
2018-07-14T20:00:26.034Z,25.45
2018-07-14T20:02:56.771Z,25.36
2018-07-14T20:05:26.363Z,25.27
2018-07-14T20:07:55.819Z,25.15
2018-07-14T20:10:24.693Z,25.04
2018-07-14T20:12:53.454Z,24.93
2018-07-14T20:15:22.713Z,24.82
2018-07-14T20:17:51.484Z,24.68
2018-07-14T20:20:20.768Z,24.53
2018-07-14T20:22:49.505Z,24.39
2018-07-14T20:25:19.038Z,24.27
2018-07-14T20:27:47.789Z,24.17
2018-07-14T20:30:16.690Z,24.09
2018-07-14T20:32:45.580Z,24.02
2018-07-14T20:35:15.085Z,23.95
2018-07-14T20:37:43.873Z,23.90
2018-07-14T20:40:13.092Z,23.84
2018-07-14T20:42:42.392Z,23.79
2018-07-14T20:45:11.626Z,23.72
2018-07-14T20:47:40.363Z,23.65
2018-07-14T20:50:09.390Z,23.59
2018-07-14T20:52:38.722Z,23.53
2018-07-14T20:55:08.189Z,23.50
2018-07-14T20:57:37.487Z,23.45
2018-07-14T21:00:06.543Z,23.39
2018-07-14T21:02:35.999Z,23.32
2018-07-14T21:05:05.487Z,23.24
2018-07-14T21:07:35.174Z,23.14
2018-07-14T21:10:04.020Z,23.08
2018-07-14T21:12:32.987Z,23.03
2018-07-14T21:15:01.664Z,22.95
2018-07-14T21:17:30.410Z,22.89
2018-07-14T21:19:59.373Z,22.82
2018-07-14T21:22:28.278Z,22.72
2018-07-14T21:24:57.586Z,22.65
2018-07-14T21:27:26.725Z,22.58
2018-07-14T21:29:55.973Z,22.51
2018-07-14T21:32:25.540Z,22.47
2018-07-14T21:34:55.683Z,22.41
2018-07-14T21:37:24.488Z,22.35
2018-07-14T21:39:54.087Z,22.31
2018-07-14T21:42:24.409Z,22.28
2018-07-14T21:44:53.835Z,22.26
2018-07-14T21:47:22.571Z,22.17
2018-07-14T21:49:52.990Z,22.08
2018-07-14T21:52:21.755Z,22.02
2018-07-14T21:54:50.962Z,21.95
2018-07-14T21:57:20.668Z,21.91
2018-07-14T21:59:49.443Z,21.88
2018-07-14T22:02:19.083Z,21.85
2018-07-14T22:04:48.678Z,21.80
2018-07-14T22:07:18.520Z,21.73
2018-07-14T22:09:47.946Z,21.64
2018-07-14T22:12:16.708Z,21.57
2018-07-14T22:14:45.547Z,21.49
2018-07-14T22:17:14.378Z,21.44
2018-07-14T22:19:43.166Z,21.38
2018-07-14T22:22:12.395Z,21.30
2018-07-14T22:24:42.254Z,21.26
2018-07-14T22:27:11.037Z,21.21
2018-07-14T22:29:39.825Z,21.17
2018-07-14T22:32:08.647Z,21.13
2018-07-14T22:34:38.238Z,21.09
2018-07-14T22:37:07.625Z,21.03
2018-07-14T22:39:36.398Z,21.01
2018-07-14T22:42:05.821Z,20.98
2018-07-14T22:44:35.281Z,20.94
2018-07-14T22:47:04.033Z,20.91
2018-07-14T22:49:32.778Z,20.87
2018-07-14T22:52:01.579Z,20.87
2018-07-14T22:54:30.938Z,20.87
2018-07-14T22:57:00.188Z,20.86
2018-07-14T22:59:29.018Z,20.82
2018-07-14T23:01:59.438Z,20.78
2018-07-14T23:04:28.922Z,20.73
2018-07-14T23:06:58.540Z,20.68
2018-07-14T23:09:29.073Z,20.62
2018-07-14T23:11:58.171Z,20.59
2018-07-14T23:14:27.251Z,20.54
2018-07-14T23:16:57.123Z,20.49
2018-07-14T23:19:26.226Z,20.47
2018-07-14T23:21:55.571Z,20.46
2018-07-14T23:24:25.444Z,20.44
2018-07-14T23:26:54.605Z,20.43
2018-07-14T23:29:23.444Z,20.41
2018-07-14T23:31:52.201Z,20.38
2018-07-14T23:34:21.781Z,20.28
2018-07-14T23:36:50.636Z,20.23
2018-07-14T23:39:19.685Z,20.19
2018-07-14T23:41:49.103Z,20.13
2018-07-14T23:44:18.666Z,20.08
2018-07-14T23:46:47.424Z,20.01
2018-07-14T23:49:16.186Z,19.97
2018-07-14T23:51:44.938Z,19.90
2018-07-14T23:54:14.212Z,19.82
2018-07-14T23:56:43.638Z,19.75
2018-07-14T23:59:12.410Z,19.69
